Airfield :
LOGIN :

Register | Disclaimer

   EN    FR    IT 

 










Legend :    VFR   Marginal VFR   IFR   Intensive IFR   Very Intensive IFR
Visi :
Ceiling :
>= 8 km
>= 3000ft
5 to 8 km
1000 to 3000 ft
1500m to 5 km
500 to 1000 ft
800 to 1500m
200 to 500 ft
< 800m
< 200 ft
Symbols :   Thunderstorms  Fog  Heavy snow  Heavy precipitations  Wind > 20 kt
SIGMETs :     Misc.  Thunderstorms  Icing  Turbulence  Mountain Waves  Volcanic Ashes






- Airport Elevation : 876 ft
- IATA code : MBX


LJMB - Maribor

CURRENT METAR :
  • 071000Z VRB02KT 7000 RA SCT002 OVC040 10/10 Q1011 RERA

EXPIRED METARs :
  • 070930Z VRB02KT 3000 +RA BR SCT002 OVC033 10/09 Q1010 RERA
  • 070900Z VRB01KT 3000 +RA BR SCT002 OVC033 09/09 Q1011
  • 070830Z 13002KT 4000 RA BR FEW002 OVC033 09/09 Q1010
  • 070800Z VRB02KT 4000 -RA BR SCT002 OVC033 09/09 Q1010
  • 070730Z VRB02KT 4000 -RA BR SCT013 OVC033 09/08 Q1010 RERA

TAF AMD TAF LJMB
Valid from the 07 at 07:00 until the 08 at 06:00 UTC


070728Z 0707/0806 36005KT 7000 RA OVC040
TEMPO 0707/0715 4000 BKN015 OVC025
PROB30
TEMPO 0709/0712 TSRA SCT030CB BKN035
BECMG 0718/0720 NSW FEW020
PROB40
TEMPO 0721/0806 0500 FG VV001



MET'MAP, your aeronautical weather chart ! - Copyright ORBIFLY December 2007 - Disclaimer

ORBIFLY MET'MAP TEAM :

Programming & Development : Alexandra Zaïnal
Concept & original design : Baudouin d'Aumeries
Assistance for programming : Marc-Olivier Méhu
Technical & hardware support : Manuel Goepfert

Contact : metmap@orbifly.com




SOURCES & CREDITS :

   NOAA